Time;durP1;ratioP1;P1;durP2;ratioP2;P2;SDS_P1;SDS_P2;PMS_P1;PMS_P2;Temp;Humidity;BMP_temperature;BMP_pressure;BME280_temperature;BME280_humidity;BME280_pressure;Samples;Min_cycle;Max_cycle;Signal;HPM_P1;HPM_P2
2022/03/06 00:00:31;;;;;;;25.52;11.75;;;;;;;-1.58;67.91;96636.84;5044675;28;20045;-62
2022/03/06 00:02:57;;;;;;;27.65;12.18;;;;;;;-1.62;68.03;96640.38;5032842;28;20068;-64
2022/03/06 00:05:23;;;;;;;30.08;13.45;;;;;;;-1.63;67.88;96644.97;5018237;28;20405;-63
2022/03/06 00:07:48;;;;;;;23.85;11.27;;;;;;;-1.61;67.91;96647.34;5036172;28;20049;-62
2022/03/06 00:10:13;;;;;;;28.63;12.65;;;;;;;-1.61;68.23;96656.22;5028892;28;20053;-63
2022/03/06 00:12:39;;;;;;;29.95;11.88;;;;;;;-1.54;68.01;96648.59;5020400;28;20100;-64
2022/03/06 00:15:05;;;;;;;29.27;13.07;;;;;;;-1.49;67.44;96644.25;5032445;28;20038;-65
2022/03/06 00:17:31;;;;;;;27.88;13.23;;;;;;;-1.45;67.73;96650.63;5018294;28;20622;-63
2022/03/06 00:19:56;;;;;;;25.92;12.30;;;;;;;-1.45;67.67;96650.63;5016687;28;20212;-64
2022/03/06 00:22:21;;;;;;;26.50;12.23;;;;;;;-1.57;68.35;96656.44;5008383;28;20120;-63
2022/03/06 00:24:47;;;;;;;26.77;12.90;;;;;;;-1.71;68.31;96659.03;5034660;28;20044;-64
2022/03/06 00:27:12;;;;;;;32.00;13.32;;;;;;;-1.81;69.01;96659.16;5035049;28;20048;-63
2022/03/06 00:29:37;;;;;;;30.92;13.35;;;;;;;-1.81;69.28;96665.31;5038736;28;20448;-63
2022/03/06 00:32:04;;;;;;;31.23;13.15;;;;;;;-1.75;69.37;96663.38;5052942;28;20025;-65
2022/03/06 00:34:29;;;;;;;25.35;11.00;;;;;;;-1.75;69.25;96655.31;5053067;28;20124;-64
2022/03/06 00:36:55;;;;;;;29.23;12.32;;;;;;;-1.87;69.24;96655.75;5050621;28;20036;-64
2022/03/06 00:39:20;;;;;;;30.05;13.65;;;;;;;-1.98;70.00;96660.44;5036713;28;20108;-63
2022/03/06 00:41:45;;;;;;;29.77;13.23;;;;;;;-2.04;70.39;96658.88;5034977;28;20372;-63
2022/03/06 00:44:11;;;;;;;28.13;12.07;;;;;;;-1.95;70.11;96657.16;5033896;28;20061;-62
2022/03/06 00:46:36;;;;;;;29.30;13.88;;;;;;;-2.07;70.65;96659.47;5031530;28;20030;-63
2022/03/06 00:49:02;;;;;;;27.67;12.10;;;;;;;-2.17;71.14;96651.53;5032512;28;20452;-64
2022/03/06 00:51:27;;;;;;;30.05;14.30;;;;;;;-2.14;71.29;96645.59;5031378;28;20040;-64
2022/03/06 00:53:52;;;;;;;32.03;14.73;;;;;;;-2.12;71.19;96649.59;5032196;28;20052;-62
2022/03/06 00:56:18;;;;;;;31.10;13.10;;;;;;;-2.20;71.66;96644.03;5031969;28;20059;-62
2022/03/06 00:58:43;;;;;;;27.90;12.88;;;;;;;-2.24;72.22;96648.38;5032191;28;20033;-64
2022/03/06 01:01:09;;;;;;;25.73;12.48;;;;;;;-2.23;72.15;96649.97;5023415;28;20029;-64
2022/03/06 01:03:34;;;;;;;32.63;13.43;;;;;;;-2.26;71.89;96651.34;5031884;28;20030;-64
2022/03/06 01:05:59;;;;;;;30.23;13.40;;;;;;;-2.28;72.53;96655.41;5031621;28;20056;-63
2022/03/06 01:08:25;;;;;;;28.27;13.32;;;;;;;-2.29;72.46;96651.13;5031833;28;20029;-63
2022/03/06 01:10:51;;;;;;;28.98;12.70;;;;;;;-2.25;72.47;96654.81;5032515;28;20056;-61
2022/03/06 01:13:20;;;;;;;33.30;13.30;;;;;;;-2.28;72.53;96653.53;5032518;28;20398;-62
2022/03/06 01:15:45;;;;;;;29.20;13.52;;;;;;;-2.34;73.08;96655.47;5032240;28;20389;-63
2022/03/06 01:18:12;;;;;;;28.13;13.07;;;;;;;-2.34;73.00;96652.78;5030625;28;20030;-61
2022/03/06 01:20:38;;;;;;;30.23;13.95;;;;;;;-2.25;72.89;96641.41;5031686;28;20060;-62
2022/03/06 01:23:05;;;;;;;31.48;14.02;;;;;;;-2.20;72.65;96646.72;5032413;28;20040;-63
2022/03/06 01:25:30;;;;;;;30.27;13.18;;;;;;;-2.20;72.40;96647.50;5031283;28;20070;-64
2022/03/06 01:27:56;;;;;;;26.23;12.20;;;;;;;-2.26;73.04;96650.56;5031574;28;20041;-64
2022/03/06 01:30:22;;;;;;;30.70;13.82;;;;;;;-2.32;73.44;96650.59;5031504;28;20040;-62
2022/03/06 01:32:49;;;;;;;30.23;13.75;;;;;;;-2.34;73.44;96652.78;5031073;28;20033;-63
2022/03/06 01:35:15;;;;;;;31.17;13.15;;;;;;;-2.32;72.98;96636.41;5030453;28;20493;-60
2022/03/06 01:37:40;;;;;;;30.67;13.63;;;;;;;-2.29;73.28;96645.75;5043954;28;20065;-62
2022/03/06 01:40:07;;;;;;;28.52;12.48;;;;;;;-2.34;73.20;96644.72;5043799;28;20032;-61
2022/03/06 01:42:33;;;;;;;31.27;13.48;;;;;;;-2.41;73.66;96644.28;5042025;28;20029;-63
2022/03/06 01:44:59;;;;;;;31.33;12.05;;;;;;;-2.49;73.98;96636.81;5051738;28;20089;-63
2022/03/06 01:47:46;;;;;;;31.40;13.63;;;;;;;-2.47;74.54;96628.50;5043385;28;20094;-64
2022/03/06 01:50:18;;;;;;;31.38;13.02;;;;;;;-2.52;74.70;96630.16;5011959;28;20033;-64
2022/03/06 01:52:44;;;;;;;33.90;13.20;;;;;;;-2.56;74.78;96628.31;5011888;28;20038;-64
2022/03/06 01:55:10;;;;;;;27.35;12.23;;;;;;;-2.39;74.54;96634.06;5034092;28;20396;-63
2022/03/06 01:57:38;;;;;;;26.27;11.73;;;;;;;-2.45;74.49;96639.75;5035911;28;20101;-63
2022/03/06 02:00:07;;;;;;;27.88;12.52;;;;;;;-2.44;74.47;96647.50;5031896;28;20428;-64
2022/03/06 02:02:33;;;;;;;30.27;13.20;;;;;;;-2.41;74.76;96646.94;5030409;28;20033;-63
2022/03/06 02:05:00;;;;;;;25.65;11.90;;;;;;;-2.36;74.07;96638.03;5046912;28;20382;-62
2022/03/06 02:07:26;;;;;;;32.00;13.40;;;;;;;-2.28;73.86;96642.78;5049062;28;20024;-63
2022/03/06 02:09:52;;;;;;;29.40;14.13;;;;;;;-2.43;74.60;96646.44;5056006;28;20044;-63
2022/03/06 02:12:23;;;;;;;30.48;13.52;;;;;;;-2.55;75.25;96643.34;5055703;28;20490;-62
2022/03/06 02:14:50;;;;;;;30.85;14.38;;;;;;;-2.50;75.07;96640.59;5055700;28;20423;-63
2022/03/06 02:17:17;;;;;;;30.95;13.45;;;;;;;-2.55;75.43;96644.13;5039996;28;20550;-63
2022/03/06 02:20:00;;;;;;;31.40;13.98;;;;;;;-2.51;75.36;96642.47;5045810;28;20036;-62
2022/03/06 02:22:28;;;;;;;32.60;13.15;;;;;;;-2.56;75.65;96639.84;5035332;28;20018;-63
2022/03/06 02:24:55;;;;;;;29.52;13.23;;;;;;;-2.61;76.01;96649.81;5044805;28;20044;-62
2022/03/06 02:27:21;;;;;;;31.40;14.20;;;;;;;-2.64;76.39;96648.50;5055177;28;20389;-63
2022/03/06 02:29:47;;;;;;;29.98;13.15;;;;;;;-2.65;76.76;96646.91;5055108;28;20043;-62
2022/03/06 02:32:16;;;;;;;28.98;14.05;;;;;;;-2.64;76.48;96642.34;5048274;28;20135;-62
2022/03/06 02:34:43;;;;;;;32.43;14.23;;;;;;;-2.66;76.79;96657.94;5046845;28;20129;-62
2022/03/06 02:37:09;;;;;;;33.58;14.27;;;;;;;-2.77;77.29;96643.81;5048136;28;20032;-63
2022/03/06 02:39:35;;;;;;;30.92;13.20;;;;;;;-2.67;76.75;96649.06;5046902;28;20025;-63
2022/03/06 02:42:04;;;;;;;31.33;14.52;;;;;;;-2.81;77.42;96657.00;5055005;28;20555;-61
2022/03/06 02:44:30;;;;;;;32.35;14.57;;;;;;;-2.74;77.19;96654.78;5054981;28;20404;-62
2022/03/06 02:46:56;;;;;;;40.03;14.20;;;;;;;-2.84;77.94;96649.50;5041212;28;20100;-62
2022/03/06 02:49:22;;;;;;;30.17;13.50;;;;;;;-2.85;78.10;96649.78;5032008;28;20099;-64
2022/03/06 02:51:48;;;;;;;36.28;15.15;;;;;;;-2.91;78.53;96649.81;5044778;28;20671;-63
2022/03/06 02:54:17;;;;;;;35.83;16.45;;;;;;;-2.88;78.40;96648.47;5043547;28;20029;-64
2022/03/06 02:56:43;;;;;;;37.43;17.80;;;;;;;-2.96;78.91;96657.09;5052201;28;20086;-63
2022/03/06 02:59:08;;;;;;;33.55;15.35;;;;;;;-2.99;79.90;96658.47;5057066;28;20028;-63
2022/03/06 03:01:39;;;;;;;35.15;14.68;;;;;;;-3.01;79.27;96655.25;5053948;28;20069;-64
2022/03/06 03:04:05;;;;;;;36.95;14.40;;;;;;;-2.97;79.38;96661.66;5072824;28;20025;-64
2022/03/06 03:06:30;;;;;;;41.40;15.65;;;;;;;-2.92;79.17;96655.44;5071936;28;20092;-63
2022/03/06 03:08:56;;;;;;;35.92;15.43;;;;;;;-3.03;79.52;96668.13;5052209;28;20041;-64
2022/03/06 03:11:22;;;;;;;34.88;14.32;;;;;;;-3.04;80.27;96669.22;5056279;28;20032;-63
2022/03/06 03:13:48;;;;;;;33.03;15.23;;;;;;;-3.14;80.58;96662.03;5064713;28;20031;-62
2022/03/06 03:16:13;;;;;;;35.50;15.07;;;;;;;-3.03;80.38;96676.16;5032303;28;20052;-62
2022/03/06 03:18:38;;;;;;;33.95;14.73;;;;;;;-3.04;80.23;96673.75;5049673;28;20032;-63
2022/03/06 03:21:04;;;;;;;32.40;14.80;;;;;;;-3.08;80.72;96681.56;5052096;28;20035;-62
2022/03/06 03:23:29;;;;;;;33.30;14.20;;;;;;;-3.21;81.11;96683.00;5043343;28;20441;-64
2022/03/06 03:25:54;;;;;;;30.52;14.45;;;;;;;-3.24;81.94;96677.38;5038139;28;20029;-61
2022/03/06 03:28:20;;;;;;;35.38;16.67;;;;;;;-3.24;81.83;96674.72;5034708;28;20026;-60
2022/03/06 03:30:45;;;;;;;36.75;15.35;;;;;;;-3.22;82.10;96670.69;5047456;28;20546;-63
2022/03/06 03:33:11;;;;;;;36.95;14.90;;;;;;;-3.22;81.89;96675.22;5045853;28;20055;-63
2022/03/06 03:35:36;;;;;;;36.88;16.48;;;;;;;-3.26;82.25;96680.34;5052603;28;20622;-62
2022/03/06 03:38:02;;;;;;;33.20;15.55;;;;;;;-3.29;82.84;96672.88;5055600;28;20037;-62
2022/03/06 03:40:27;;;;;;;37.30;14.70;;;;;;;-3.34;83.19;96678.25;5036089;28;20036;-62
2022/03/06 03:42:53;;;;;;;34.30;15.13;;;;;;;-3.30;83.30;96680.09;5054222;28;20032;-62
2022/03/06 03:45:18;;;;;;;37.13;15.48;;;;;;;-3.37;83.71;96684.97;5045896;28;20020;-62
2022/03/06 03:47:44;;;;;;;36.30;15.90;;;;;;;-3.38;84.03;96680.69;5072991;28;20036;-63
2022/03/06 03:50:09;;;;;;;36.42;14.80;;;;;;;-3.44;84.64;96689.81;5069019;28;20026;-63
2022/03/06 03:52:35;;;;;;;33.35;15.20;;;;;;;-3.53;85.20;96681.59;5052739;28;20094;-62
2022/03/06 03:55:01;;;;;;;35.88;15.20;;;;;;;-3.56;85.70;96690.16;5045964;28;20029;-62
2022/03/06 03:57:26;;;;;;;34.78;14.60;;;;;;;-3.60;85.64;96686.44;5053519;28;20041;-62
2022/03/06 03:59:52;;;;;;;34.30;14.57;;;;;;;-3.59;86.01;96685.34;5042004;28;20061;-63
2022/03/06 04:02:17;;;;;;;34.63;15.43;;;;;;;-3.61;85.91;96692.06;5049384;28;20029;-61
2022/03/06 04:04:43;;;;;;;35.25;16.75;;;;;;;-3.60;86.48;96696.34;5046913;28;20025;-63
2022/03/06 04:07:08;;;;;;;37.38;15.95;;;;;;;-3.52;85.80;96693.09;5044571;28;20029;-63
2022/03/06 04:09:33;;;;;;;38.75;16.10;;;;;;;-3.58;86.09;96694.19;5053083;28;20405;-63
2022/03/06 04:11:59;;;;;;;38.42;15.55;;;;;;;-3.57;86.46;96682.41;5049229;28;20083;-63
2022/03/06 04:14:24;;;;;;;31.55;13.63;;;;;;;-3.59;86.66;96687.25;5037183;28;20486;-63
2022/03/06 04:16:50;;;;;;;36.75;14.68;;;;;;;-3.66;86.99;96688.31;5043054;28;20039;-63
2022/03/06 04:19:15;;;;;;;37.97;16.88;;;;;;;-3.67;87.14;96689.41;5053573;28;20033;-64
2022/03/06 04:21:41;;;;;;;40.30;15.82;;;;;;;-3.70;87.16;96691.84;5053012;28;20040;-62
2022/03/06 04:24:07;;;;;;;42.35;16.13;;;;;;;-3.76;87.64;96690.25;5049933;28;20230;-62
2022/03/06 04:26:33;;;;;;;37.95;15.13;;;;;;;-3.72;87.68;96699.34;5038343;28;20029;-60
2022/03/06 04:28:59;;;;;;;31.50;14.98;;;;;;;-3.74;88.45;96702.31;5040845;28;20104;-64
2022/03/06 04:31:25;;;;;;;33.35;13.75;;;;;;;-3.73;87.75;96698.53;5039456;28;20548;-62
2022/03/06 04:33:51;;;;;;;40.47;14.95;;;;;;;-3.68;88.46;96697.72;5032455;28;20067;-62
2022/03/06 04:36:16;;;;;;;35.70;14.93;;;;;;;-3.68;88.04;96695.03;5048510;28;20076;-62
2022/03/06 04:38:42;;;;;;;39.00;15.40;;;;;;;-3.64;87.73;96688.06;5033231;28;20069;-63
2022/03/06 04:41:07;;;;;;;35.08;15.05;;;;;;;-3.65;87.98;96689.94;5033896;28;20028;-63
2022/03/06 04:43:33;;;;;;;35.50;14.88;;;;;;;-3.67;88.16;96692.09;5036656;28;20029;-63
2022/03/06 04:45:58;;;;;;;38.72;15.88;;;;;;;-3.58;88.36;96702.22;5059463;28;20037;-64
2022/03/06 04:48:24;;;;;;;34.72;16.08;;;;;;;-3.62;88.22;96703.84;5070554;28;20052;-65
2022/03/06 04:50:49;;;;;;;37.60;15.63;;;;;;;-3.66;88.97;96701.72;5068228;28;20041;-61
2022/03/06 04:53:14;;;;;;;38.33;16.05;;;;;;;-3.67;88.93;96705.47;5045546;28;20103;-62
2022/03/06 04:55:40;;;;;;;40.38;16.55;;;;;;;-3.65;89.05;96708.69;5052271;28;20033;-62
2022/03/06 04:58:05;;;;;;;34.65;15.27;;;;;;;-3.63;89.55;96712.97;5047275;28;20075;-60
2022/03/06 05:00:32;;;;;;;33.72;15.10;;;;;;;-3.58;89.25;96710.25;5046527;28;20037;-61
2022/03/06 05:02:58;;;;;;;35.33;14.82;;;;;;;-3.47;89.20;96720.66;5044184;28;20036;-62
2022/03/06 05:05:24;;;;;;;40.65;15.55;;;;;;;-3.39;88.37;96713.91;5037728;28;20080;-62
2022/03/06 05:07:50;;;;;;;38.03;16.95;;;;;;;-3.43;88.81;96715.53;5044073;28;20056;-62
2022/03/06 05:10:15;;;;;;;37.45;16.00;;;;;;;-3.50;89.32;96721.19;5030461;28;20046;-63
2022/03/06 05:12:41;;;;;;;33.85;14.45;;;;;;;-3.40;88.53;96722.22;5039442;28;20063;-65
2022/03/06 05:15:09;;;;;;;41.38;16.73;;;;;;;-3.52;89.43;96720.66;5040148;28;20037;-63
2022/03/06 05:17:34;;;;;;;39.47;16.55;;;;;;;-3.43;89.90;96718.22;5037169;28;20029;-63
2022/03/06 05:20:00;;;;;;;41.00;15.70;;;;;;;-3.46;89.83;96719.56;5033597;28;20036;-60
2022/03/06 05:22:26;;;;;;;33.53;15.40;;;;;;;-3.43;89.65;96714.75;5032039;28;20030;-62
2022/03/06 05:24:51;;;;;;;38.47;16.42;;;;;;;-3.47;90.38;96728.69;5040901;28;20216;-63
2022/03/06 05:27:17;;;;;;;37.97;16.83;;;;;;;-3.44;90.25;96721.97;5040721;28;20029;-63
2022/03/06 05:29:42;;;;;;;36.45;15.38;;;;;;;-3.46;90.50;96732.16;5042596;28;20071;-63
2022/03/06 05:32:08;;;;;;;43.47;17.40;;;;;;;-3.46;90.58;96722.25;5056252;28;20029;-62
2022/03/06 05:34:34;;;;;;;43.47;16.95;;;;;;;-3.50;91.39;96723.06;5064515;28;20029;-61
2022/03/06 05:36:59;;;;;;;39.53;17.98;;;;;;;-3.51;91.28;96719.59;5053095;28;20033;-63
2022/03/06 05:39:24;;;;;;;39.30;16.42;;;;;;;-3.47;91.55;96726.00;5054375;28;20040;-61
2022/03/06 05:41:50;;;;;;;40.47;18.55;;;;;;;-3.48;91.69;96715.56;5036049;28;20037;-60
2022/03/06 05:44:15;;;;;;;37.17;18.10;;;;;;;-3.52;91.46;96720.66;5036860;28;20071;-63
2022/03/06 05:46:40;;;;;;;43.95;18.98;;;;;;;-3.53;91.62;96724.44;5029404;28;20421;-60
2022/03/06 05:49:12;;;;;;;43.40;18.45;;;;;;;-3.53;92.37;96721.75;5031102;28;20482;-63
2022/03/06 05:51:39;;;;;;;46.00;20.42;;;;;;;-3.53;91.89;96724.44;5015478;28;20482;-62
2022/03/06 05:54:06;;;;;;;50.17;18.73;;;;;;;-3.56;92.34;96735.69;5031684;28;20466;-62
2022/03/06 05:56:32;;;;;;;45.70;19.17;;;;;;;-3.62;92.94;96728.72;5018952;28;20145;-62
2022/03/06 05:58:57;;;;;;;42.17;19.30;;;;;;;-3.63;92.89;96732.50;5043174;28;20485;-62
2022/03/06 06:01:23;;;;;;;42.55;19.30;;;;;;;-3.69;93.62;96737.09;5049387;28;20099;-63
2022/03/06 06:03:49;;;;;;;46.97;21.30;;;;;;;-3.73;94.03;96729.84;5046840;28;20025;-61
2022/03/06 06:06:15;;;;;;;54.70;24.25;;;;;;;-3.73;94.24;96738.69;5043700;28;20029;-64
2022/03/06 06:08:40;;;;;;;49.72;22.38;;;;;;;-3.73;94.36;96743.25;5051676;28;20083;-62
2022/03/06 06:11:06;;;;;;;80.05;35.45;;;;;;;-3.77;94.86;96745.66;5043099;28;20044;-63
2022/03/06 06:13:32;;;;;;;47.72;22.13;;;;;;;-3.80;95.42;96746.19;5051693;28;20505;-64
2022/03/06 06:15:57;;;;;;;45.75;20.95;;;;;;;-3.75;95.21;96756.88;5036533;28;20102;-64
2022/03/06 06:18:25;;;;;;;48.35;22.88;;;;;;;-3.82;94.89;96753.69;5050276;28;20032;-62
2022/03/06 06:20:51;;;;;;;47.80;21.27;;;;;;;-3.81;95.48;96754.53;5051318;28;20029;-64
2022/03/06 06:23:16;;;;;;;49.70;24.25;;;;;;;-3.85;96.09;96755.06;5052685;28;20048;-64
2022/03/06 06:25:41;;;;;;;59.58;26.42;;;;;;;-3.88;95.92;96758.28;5039895;28;20047;-64
2022/03/06 06:28:07;;;;;;;72.20;29.75;;;;;;;-3.82;96.13;96750.22;5013972;28;20448;-65
2022/03/06 06:30:32;;;;;;;53.95;22.80;;;;;;;-3.74;95.72;96758.50;5043939;28;20032;-62
2022/03/06 06:32:58;;;;;;;51.47;23.92;;;;;;;-3.66;94.83;96754.47;5041808;28;20043;-62
2022/03/06 06:35:23;;;;;;;47.63;24.38;;;;;;;-3.69;95.08;96752.31;5045763;28;20037;-63
2022/03/06 06:37:49;;;;;;;48.03;25.85;;;;;;;-3.67;95.13;96753.66;5044501;28;20123;-61
2022/03/06 06:40:14;;;;;;;54.35;26.15;;;;;;;-3.61;94.72;96751.75;5031603;28;20530;-63
2022/03/06 06:42:40;;;;;;;43.25;19.92;;;;;;;-3.57;94.41;96755.50;5028524;28;20026;-63
2022/03/06 06:45:05;;;;;;;52.47;21.45;;;;;;;-3.49;94.34;96748.78;5044811;28;20024;-62
2022/03/06 06:47:31;;;;;;;46.45;20.38;;;;;;;-3.41;93.81;96755.44;5040132;28;20071;-62
2022/03/06 06:49:56;;;;;;;45.45;20.60;;;;;;;-3.33;93.13;96760.19;5043120;28;20065;-66
2022/03/06 06:52:21;;;;;;;45.03;19.80;;;;;;;-3.00;91.87;96756.00;5042535;28;20458;-64
2022/03/06 06:54:47;;;;;;;44.63;20.63;;;;;;;-3.04;91.62;96746.94;5041495;28;20029;-62
2022/03/06 06:57:12;;;;;;;41.22;19.10;;;;;;;-2.90;90.17;96766.69;5047791;28;20502;-63
2022/03/06 06:59:38;;;;;;;43.25;19.33;;;;;;;-2.81;90.46;96756.16;5028642;28;20098;-64
2022/03/06 07:02:03;;;;;;;50.35;19.85;;;;;;;-2.56;89.25;96757.03;5047707;28;20041;-64
2022/03/06 07:04:29;;;;;;;42.47;16.20;;;;;;;-2.53;88.89;96768.00;5050461;28;20047;-61
2022/03/06 07:06:54;;;;;;;42.22;17.90;;;;;;;-2.47;88.80;96762.59;5041405;28;20033;-62
2022/03/06 07:09:20;;;;;;;43.08;18.42;;;;;;;-2.50;88.66;96761.31;5043856;28;20029;-60
2022/03/06 07:11:45;;;;;;;37.80;17.92;;;;;;;-2.01;85.97;96767.56;5045693;28;20111;-63
2022/03/06 07:14:10;;;;;;;35.63;16.17;;;;;;;-1.92;86.17;96757.81;5042336;28;20479;-62
2022/03/06 07:16:36;;;;;;;43.85;20.17;;;;;;;-2.07;84.74;96753.41;5047109;28;20390;-61
2022/03/06 07:19:01;;;;;;;38.00;17.17;;;;;;;-1.65;84.38;96765.31;5047507;28;20101;-64
2022/03/06 07:21:26;;;;;;;44.17;19.88;;;;;;;-2.23;86.17;96763.47;5047863;28;20025;-63
2022/03/06 07:23:52;;;;;;;37.72;17.45;;;;;;;-1.90;86.10;96766.38;5042014;28;20040;-64
2022/03/06 07:26:17;;;;;;;36.03;16.23;;;;;;;-1.56;84.00;96763.59;5042218;28;20025;-63
2022/03/06 07:28:43;;;;;;;40.80;18.33;;;;;;;-1.35;81.43;96774.09;5043504;28;20108;-63
2022/03/06 07:31:09;;;;;;;36.22;17.33;;;;;;;-1.24;79.69;96766.69;5036164;28;20478;-62
2022/03/06 07:33:35;;;;;;;39.72;17.17;;;;;;;-1.38;82.17;96767.41;5038906;28;20037;-63
2022/03/06 07:36:00;;;;;;;38.20;17.77;;;;;;;-0.53;78.25;96766.78;5044412;28;20459;-63
2022/03/06 07:38:26;;;;;;;42.40;17.58;;;;;;;-0.83;78.13;96772.34;5027021;28;20037;-63
2022/03/06 07:40:51;;;;;;;40.97;17.05;;;;;;;0.27;74.79;96776.47;5037199;28;20029;-64
2022/03/06 07:43:16;;;;;;;39.95;20.30;;;;;;;0.18;73.99;96773.66;5046183;28;20071;-64
2022/03/06 07:45:42;;;;;;;36.63;19.23;;;;;;;-0.43;74.69;96778.19;5048790;28;20521;-64
2022/03/06 07:48:07;;;;;;;41.10;17.42;;;;;;;0.77;72.83;96781.13;5036578;28;20107;-63
2022/03/06 07:50:32;;;;;;;33.03;16.80;;;;;;;1.53;67.33;96785.97;5039473;28;20037;-65
2022/03/06 07:52:58;;;;;;;38.95;17.10;;;;;;;0.91;68.95;96783.81;5011919;28;20135;-64
2022/03/06 07:55:24;;;;;;;45.60;20.95;;;;;;;0.13;73.71;96786.41;5031839;28;20389;-63
2022/03/06 07:57:49;;;;;;;41.13;17.98;;;;;;;1.03;70.55;96794.91;5042561;28;20063;-66
2022/03/06 08:00:15;;;;;;;42.38;18.20;;;;;;;1.38;68.72;96800.59;5035845;28;20055;-64
2022/03/06 08:02:40;;;;;;;43.50;18.85;;;;;;;0.55;69.71;96788.03;5033471;28;20045;-66
2022/03/06 08:05:07;;;;;;;41.15;19.23;;;;;;;-0.35;75.18;96789.38;5035240;28;20045;-61
2022/03/06 08:07:34;;;;;;;52.67;23.17;;;;;;;-0.03;74.80;96791.25;5043678;28;20052;-63
2022/03/06 08:09:59;;;;;;;53.85;24.92;;;;;;;0.20;73.30;96797.59;5037665;28;20080;-65
2022/03/06 08:12:27;;;;;;;41.85;18.48;;;;;;;1.84;70.86;96804.16;5035894;28;20046;-65
2022/03/06 08:14:53;;;;;;;43.05;19.45;;;;;;;2.37;63.82;96795.22;5038946;28;20037;-65
2022/03/06 08:17:19;;;;;;;39.15;18.20;;;;;;;0.80;70.21;96790.53;5038486;28;20091;-63
2022/03/06 08:19:45;;;;;;;41.13;19.35;;;;;;;0.06;72.57;96800.25;5051488;28;20044;-63
2022/03/06 08:22:12;;;;;;;37.55;18.08;;;;;;;0.25;73.61;96799.38;5043847;28;20046;-65
2022/03/06 08:24:37;;;;;;;35.95;18.23;;;;;;;0.82;69.53;96799.13;5041678;28;20045;-63
2022/03/06 08:27:03;;;;;;;38.88;18.45;;;;;;;0.33;73.96;96796.03;5036342;28;20040;-64
2022/03/06 08:29:28;;;;;;;37.72;17.67;;;;;;;0.55;72.86;96798.03;5031555;28;20117;-64
2022/03/06 08:31:53;;;;;;;37.53;18.52;;;;;;;1.39;69.62;96802.22;5039099;28;20068;-63
2022/03/06 08:34:19;;;;;;;38.53;18.13;;;;;;;0.26;72.84;96799.09;5031232;28;20524;-64
2022/03/06 08:36:45;;;;;;;39.13;18.95;;;;;;;-0.01;74.55;96795.25;5036136;28;20077;-64
2022/03/06 08:39:10;;;;;;;39.03;17.25;;;;;;;0.16;76.05;96799.28;5035131;28;20064;-65
2022/03/06 08:41:36;;;;;;;39.78;18.27;;;;;;;-0.11;74.96;96783.84;5043826;28;20394;-64
2022/03/06 08:44:01;;;;;;;40.67;18.23;;;;;;;-0.08;75.46;96800.22;5042363;28;20079;-63
2022/03/06 08:46:27;;;;;;;46.28;23.45;;;;;;;-0.21;76.92;96795.59;5026846;28;20133;-63
2022/03/06 08:48:52;;;;;;;45.78;18.35;;;;;;;0.32;74.24;96797.09;5011377;28;20658;-64
2022/03/06 08:51:17;;;;;;;40.50;20.02;;;;;;;0.68;72.65;96796.41;4998789;28;20042;-64
2022/03/06 08:53:43;;;;;;;40.38;19.60;;;;;;;0.61;71.57;96796.81;5004216;28;20033;-63
2022/03/06 08:56:08;;;;;;;33.20;16.23;;;;;;;1.24;70.67;96797.16;4998182;28;20141;-64
2022/03/06 08:58:35;;;;;;;39.50;20.20;;;;;;;0.34;73.53;96790.34;5002986;28;20064;-63
2022/03/06 09:01:00;;;;;;;34.53;17.15;;;;;;;1.20;71.48;96801.56;5002902;28;20033;-65
2022/03/06 09:03:25;;;;;;;41.80;21.27;;;;;;;1.34;69.01;96807.72;4997602;28;20112;-64
2022/03/06 09:05:51;;;;;;;41.55;17.65;;;;;;;2.72;66.62;96806.22;5002313;28;20487;-64
2022/03/06 09:08:16;;;;;;;38.13;17.20;;;;;;;2.01;67.26;96798.06;5021074;28;20050;-62
2022/03/06 09:10:42;;;;;;;39.22;18.30;;;;;;;2.14;65.15;96799.09;5039524;28;20057;-66
2022/03/06 09:13:08;;;;;;;39.55;19.88;;;;;;;0.97;68.38;96823.06;5042346;28;20555;-64
2022/03/06 09:15:35;;;;;;;36.72;18.67;;;;;;;1.95;67.79;96802.78;5039312;28;20037;-64
2022/03/06 09:18:00;;;;;;;39.38;17.77;;;;;;;3.52;63.42;96800.63;5042036;28;20044;-65
2022/03/06 09:20:26;;;;;;;34.20;16.02;;;;;;;4.92;58.17;96794.88;5042111;28;20443;-65
2022/03/06 09:22:53;;;;;;;34.70;17.63;;;;;;;5.04;55.97;96799.59;5033637;28;20140;-65
2022/03/06 09:25:18;;;;;;;34.10;16.40;;;;;;;3.98;57.75;96809.19;5026294;28;20041;-65
2022/03/06 09:27:44;;;;;;;36.85;16.88;;;;;;;3.10;62.79;96808.38;5038948;28;20505;-67
2022/03/06 09:30:11;;;;;;;38.65;17.77;;;;;;;3.49;59.76;96809.38;5037019;28;20117;-66
2022/03/06 09:32:37;;;;;;;35.50;18.25;;;;;;;1.17;67.84;96816.47;5033330;28;20049;-66
2022/03/06 09:35:03;;;;;;;36.97;18.23;;;;;;;2.58;64.92;96811.72;5042235;28;20037;-63
2022/03/06 09:37:29;;;;;;;35.60;16.67;;;;;;;2.79;61.33;96808.44;5041819;28;20116;-64
2022/03/06 09:39:54;;;;;;;35.35;17.00;;;;;;;3.99;56.44;96822.44;5042841;28;20148;-65
2022/03/06 09:42:21;;;;;;;35.13;16.75;;;;;;;3.87;58.71;96819.59;5035373;28;20464;-64
2022/03/06 09:44:48;;;;;;;35.75;16.60;;;;;;;2.42;63.48;96824.84;5042439;28;20072;-65
2022/03/06 09:47:14;;;;;;;40.80;19.77;;;;;;;2.90;62.74;96809.78;5037478;28;20067;-64
2022/03/06 09:49:43;;;;;;;43.78;20.55;;;;;;;3.52;60.28;96814.16;5047618;28;20049;-64
2022/03/06 09:52:10;;;;;;;39.45;18.08;;;;;;;4.09;58.32;96815.09;5039246;28;20111;-66
2022/03/06 09:54:36;;;;;;;37.72;18.33;;;;;;;6.01;52.85;96819.56;5048449;28;20044;-66
2022/03/06 09:57:02;;;;;;;37.38;16.88;;;;;;;6.65;52.34;96821.78;5042253;28;20045;-64
2022/03/06 09:59:30;;;;;;;39.85;18.48;;;;;;;4.19;57.35;96812.03;5029507;28;20083;-65
2022/03/06 10:02:00;;;;;;;35.40;16.60;;;;;;;5.82;52.30;96825.47;5028129;28;20065;-68
2022/03/06 10:04:29;;;;;;;33.05;15.65;;;;;;;6.44;50.83;96821.84;5024543;28;20045;-64
2022/03/06 10:07:12;;;;;;;37.42;18.45;;;;;;;3.63;57.56;96820.06;5021747;28;20128;-64
2022/03/06 10:09:43;;;;;;;37.60;17.35;;;;;;;4.02;59.04;96821.81;5024334;28;20072;-64
2022/03/06 10:12:22;;;;;;;34.75;16.63;;;;;;;6.09;52.47;96826.84;5025694;28;20436;-64
2022/03/06 10:14:49;;;;;;;34.03;16.37;;;;;;;3.17;59.79;96821.44;5041004;28;20041;-64
2022/03/06 10:17:25;;;;;;;36.35;17.38;;;;;;;1.75;64.63;96823.00;5041966;28;20370;-66
2022/03/06 10:19:54;;;;;;;39.92;18.00;;;;;;;2.15;63.40;96831.22;5041345;28;20045;-62
2022/03/06 10:22:22;;;;;;;41.67;19.20;;;;;;;2.22;63.94;96825.38;5036659;28;20041;-64
2022/03/06 10:24:53;;;;;;;33.17;17.33;;;;;;;2.05;64.39;96824.16;5035604;28;20075;-64
2022/03/06 10:27:59;;;;;;;37.65;18.83;;;;;;;2.08;64.68;96826.22;5031228;28;20029;-63
2022/03/06 10:30:25;;;;;;;38.78;18.35;;;;;;;1.92;65.48;96822.31;5051166;28;20036;-64
2022/03/06 10:32:51;;;;;;;37.17;17.73;;;;;;;1.70;66.04;96823.91;5058263;28;20048;-64
2022/03/06 10:35:16;;;;;;;41.88;18.88;;;;;;;1.28;67.40;96844.81;5042789;28;20486;-63
2022/03/06 10:37:41;;;;;;;39.50;20.23;;;;;;;1.24;66.58;96832.22;5026696;28;20041;-64
2022/03/06 10:40:07;;;;;;;37.90;18.60;;;;;;;1.49;66.38;96847.84;5026964;28;20456;-63
2022/03/06 10:42:33;;;;;;;41.10;19.27;;;;;;;1.69;66.99;96821.50;5023915;28;20041;-64
2022/03/06 10:44:58;;;;;;;44.83;18.80;;;;;;;1.97;66.69;96829.50;5025635;28;20134;-65
2022/03/06 10:47:24;;;;;;;38.78;18.40;;;;;;;2.08;65.23;96823.53;5027692;28;20045;-63
2022/03/06 10:50:04;;;;;;;40.55;19.27;;;;;;;1.92;65.91;96828.50;5037249;28;20060;-63
2022/03/06 10:52:29;;;;;;;29.48;16.10;;;;;;;2.44;64.24;96827.22;5043643;28;20048;-65
2022/03/06 10:54:56;;;;;;;42.42;19.00;;;;;;;1.85;65.07;96827.34;5034627;28;20049;-65
2022/03/06 10:57:23;;;;;;;39.22;17.35;;;;;;;1.90;64.33;96840.72;5032990;28;20146;-64
2022/03/06 10:59:49;;;;;;;41.67;18.83;;;;;;;2.09;64.00;96827.06;5045304;28;20036;-64
2022/03/06 11:02:16;;;;;;;33.90;16.63;;;;;;;2.81;61.01;96822.44;5040520;28;20068;-64
2022/03/06 11:04:45;;;;;;;36.28;17.17;;;;;;;4.16;57.46;96823.53;5045317;28;20534;-65
2022/03/06 11:07:12;;;;;;;32.33;16.30;;;;;;;3.75;59.07;96824.88;5037889;28;20512;-64
2022/03/06 11:09:38;;;;;;;33.13;17.05;;;;;;;3.86;56.85;96817.22;5033704;28;20052;-64
2022/03/06 11:12:04;;;;;;;37.45;17.75;;;;;;;3.35;58.99;96823.06;5032154;28;20053;-64
2022/03/06 11:14:32;;;;;;;34.75;17.20;;;;;;;3.43;59.32;96818.78;5025906;28;20112;-65